Long Pond, PA (18334)

11:37 PM EDT on September 02, 2014 (GMT -0400)
Pinecrest Lake | Change Station
CLOSE
Current Station
Personal Weather Station
Location: Pocono Pines, PA
Elevation: 2032 ft
Nearby Weather Stations

Elev 2032 ft 41.09 °N, 75.44 °W | Updated 6 seconds ago

Mostly Cloudy
Mostly Cloudy
67.7 °F
Feels Like 67.7 °F
N
6.0
Wind Variable Wind from NNW

Today
High -- | Low -- °F
--% Chance of Precip.
Yesterday
High -- | Low -- °F
Precip. -- in
6:29 AM 7:32 PM
First Quarter, 58% visible
Pressure 29.91 in
Visibility 10.0 miles
Clouds Few 900 ft
Scattered Clouds 1300 ft
Mostly Cloudy 2300 ft
Dew Point 67 °F
Humidity 97%
Rainfall 0.04 in
Snow Depth Not available.
UV 0 out of 12
Pollen 9.00 out of 12
Air Quality Not available.
Flu Activity Not available.
SPECI KMPO 030320Z AUTO 32011G18KT 10SM FEW009 SCT013 BKN023 21/18 A2991 RMK AO2 T02060178 TSNO

More Conditions Fewer Conditions

Pressure 29.91 in
Visibility 10.0 miles
Clouds Few 900 ft
Scattered Clouds 1300 ft
Mostly Cloudy 2300 ft
Dew Point 67 °F
Humidity 97%
Rainfall 0.04 in
Snow Depth Not available.
UV 0 out of 12
Pollen 9.00 out of 12
Air Quality Not available.
Flu Activity Not available.
SPECI KMPO 030320Z AUTO 32011G18KT 10SM FEW009 SCT013 BKN023 21/18 A2991 RMK AO2 T02060178 TSNO

More Conditions Fewer Conditions

10-Day Weather Forecast

Almanac

Astronomy

Sep. 02, 2014 Rise Set
Actual Time 6:29 AM EDT 7:32 PM EDT
Civil Twilight 6:01 AM EDT 8:00 PM EDT
Nautical Twilight 5:27 AM EDT 8:34 PM EDT
Astronomical Twilight 4:52 AM EDT 9:09 PM EDT
Moon 2:14 PM EDT (9/2) No Moon Set
Length of Visible Light 13h 59m
Length of Day
13h 03m
Tomorrow will be 2m 38s shorter.
First Quarter, 58% of the Moon is Illuminated
Today
First Quarter
Sep 8
Full
Sep 15
Last Quarter
Sep 24
New
Oct 1
First Quarter

Today's Extremes

State Highs State Lows

Community

WunderPhotos

Upload Photos

1,749,867 photos uploaded!

WunderBlogs® & News

Nearby

Snow Depth

Station Depth Elevation
No new snow has been reported.

Earthquake Activity

City Distance Mag. Time & Date
No recent earthquake activity has been reported nearby.
Minimum magnitude displayed is 2.5.

Coastal Water Temperatures

Place Temperature
No Stations Reporting

Nearby Weather Stations